Time;durP1;ratioP1;P1;durP2;ratioP2;P2;SDS_P1;SDS_P2;PMS_P1;PMS_P2;Temp;Humidity;BMP_temperature;BMP_pressure;BME280_temperature;BME280_humidity;BME280_pressure;Samples;Min_cycle;Max_cycle;Signal;HPM_P1;HPM_P2
2021/11/23 00:00:36;;;;;;;1.40;0.40;;;;;;;;;;4983038;28;20053;-55
2021/11/23 00:03:02;;;;;;;2.00;0.60;;;;;;;;;;4983815;28;20061;-56
2021/11/23 00:05:28;;;;;;;3.60;0.77;;;;;;;;;;4966126;28;20069;-56
2021/11/23 00:07:54;;;;;;;2.05;0.70;;;;;;;;;;4982951;28;20081;-55
2021/11/23 00:10:19;;;;;;;2.20;0.50;;;;;;;;;;4981494;28;20108;-56
2021/11/23 00:12:45;;;;;;;1.60;0.50;;;;;;;;;;4983605;28;20053;-55
2021/11/23 00:15:11;;;;;;;2.20;0.60;;;;;;;;;;4984258;28;20068;-54
2021/11/23 00:17:37;;;;;;;2.22;0.57;;;;;;;;;;4981752;28;20042;-55
2021/11/23 00:20:04;;;;;;;6.53;0.75;;;;;;;;;;4967486;28;20088;-53
2021/11/23 00:22:31;;;;;;;7.50;1.10;;;;;;;;;;4983230;28;20038;-53
2021/11/23 00:24:57;;;;;;;2.38;0.68;;;;;;;;;;4982383;28;20053;-51
2021/11/23 00:27:23;;;;;;;5.60;0.85;;;;;;;;;;4980890;28;20177;-55
2021/11/23 00:29:49;;;;;;;3.10;0.80;;;;;;;;;;4983818;28;20750;-53
2021/11/23 00:32:15;;;;;;;4.55;0.60;;;;;;;;;;4984068;28;20047;-51
2021/11/23 00:34:41;;;;;;;5.72;0.80;;;;;;;;;;4982597;28;20042;-51
2021/11/23 00:37:07;;;;;;;2.42;0.60;;;;;;;;;;4982831;28;20038;-56
2021/11/23 00:39:34;;;;;;;1.75;0.55;;;;;;;;;;4982844;28;20046;-55
2021/11/23 00:42:00;;;;;;;1.77;0.60;;;;;;;;;;4979844;28;20118;-55
2021/11/23 00:44:25;;;;;;;5.50;0.95;;;;;;;;;;4979877;28;20042;-56
2021/11/23 00:46:51;;;;;;;6.40;1.13;;;;;;;;;;4982413;28;20457;-52
2021/11/23 00:49:17;;;;;;;3.80;0.90;;;;;;;;;;4983310;28;20538;-53
2021/11/23 00:51:44;;;;;;;4.20;1.00;;;;;;;;;;4980322;28;20050;-54
2021/11/23 00:54:10;;;;;;;2.78;0.80;;;;;;;;;;4983458;28;20191;-53
2021/11/23 00:56:36;;;;;;;2.63;0.68;;;;;;;;;;4979983;28;20038;-55
2021/11/23 00:59:02;;;;;;;3.75;0.90;;;;;;;;;;4980678;28;20038;-52
2021/11/23 01:01:28;;;;;;;5.50;1.08;;;;;;;;;;4983632;28;20044;-54
2021/11/23 01:03:54;;;;;;;7.15;1.10;;;;;;;;;;4963715;28;20114;-52
2021/11/23 01:06:20;;;;;;;6.10;1.05;;;;;;;;;;4977934;28;20057;-54
2021/11/23 01:08:47;;;;;;;3.65;1.20;;;;;;;;;;4953425;28;20725;-56
2021/11/23 01:11:14;;;;;;;5.68;1.00;;;;;;;;;;4936878;28;20105;-53
2021/11/23 01:13:40;;;;;;;6.05;1.25;;;;;;;;;;4951931;28;20050;-55
2021/11/23 01:16:06;;;;;;;7.47;1.25;;;;;;;;;;4955970;28;20039;-54
2021/11/23 01:18:32;;;;;;;5.93;1.20;;;;;;;;;;4953680;28;20050;-53
2021/11/23 01:21:02;;;;;;;4.63;1.23;;;;;;;;;;4954498;28;20197;-54
2021/11/23 01:23:28;;;;;;;6.22;1.50;;;;;;;;;;4950921;28;20040;-55
2021/11/23 01:25:55;;;;;;;5.03;0.98;;;;;;;;;;4952795;28;20066;-50
2021/11/23 01:28:21;;;;;;;2.70;0.77;;;;;;;;;;4952337;28;20118;-53
2021/11/23 01:30:47;;;;;;;3.95;0.90;;;;;;;;;;4952553;28;20535;-53
2021/11/23 01:33:13;;;;;;;6.65;0.82;;;;;;;;;;4952136;28;20777;-51
2021/11/23 01:35:39;;;;;;;6.00;0.80;;;;;;;;;;4953373;28;20035;-51
2021/11/23 01:38:05;;;;;;;4.35;0.93;;;;;;;;;;4952526;28;20050;-55
2021/11/23 01:40:32;;;;;;;5.57;0.80;;;;;;;;;;4951957;28;20080;-56
2021/11/23 01:42:58;;;;;;;5.93;0.90;;;;;;;;;;4951489;28;20039;-55
2021/11/23 01:45:24;;;;;;;1.85;0.70;;;;;;;;;;4950372;28;20643;-56
2021/11/23 01:47:50;;;;;;;3.63;0.90;;;;;;;;;;4953122;28;20142;-55
2021/11/23 01:50:16;;;;;;;3.70;1.00;;;;;;;;;;4952887;28;20070;-55
2021/11/23 01:52:47;;;;;;;3.20;1.00;;;;;;;;;;4950702;28;20060;-53
2021/11/23 01:55:13;;;;;;;4.22;1.17;;;;;;;;;;4952977;28;20031;-52
2021/11/23 01:57:41;;;;;;;3.75;0.98;;;;;;;;;;4951782;28;20046;-51
2021/11/23 02:00:08;;;;;;;2.90;0.93;;;;;;;;;;4935346;28;20129;-54
2021/11/23 02:02:33;;;;;;;6.38;1.55;;;;;;;;;;4952499;28;20043;-51
2021/11/23 02:04:59;;;;;;;4.43;1.17;;;;;;;;;;4953853;28;20055;-51
2021/11/23 02:07:25;;;;;;;2.85;1.05;;;;;;;;;;4958951;28;20069;-52
2021/11/23 02:09:51;;;;;;;5.50;2.20;;;;;;;;;;4966187;28;20046;-55
2021/11/23 02:12:19;;;;;;;7.47;1.90;;;;;;;;;;4986551;28;20077;-53
2021/11/23 02:14:47;;;;;;;9.45;1.70;;;;;;;;;;4982946;28;20495;-51
2021/11/23 02:17:13;;;;;;;6.78;1.10;;;;;;;;;;4985936;28;20069;-51
2021/11/23 02:19:45;;;;;;;2.45;0.80;;;;;;;;;;4983282;28;20038;-54
2021/11/23 02:22:11;;;;;;;2.75;0.70;;;;;;;;;;4985756;28;20050;-50
2021/11/23 02:24:37;;;;;;;7.47;1.00;;;;;;;;;;4984493;28;20068;-49
2021/11/23 02:27:03;;;;;;;2.33;0.75;;;;;;;;;;4985400;28;20068;-55
2021/11/23 02:29:29;;;;;;;3.05;0.68;;;;;;;;;;4982833;28;20788;-52
2021/11/23 02:31:54;;;;;;;3.97;0.90;;;;;;;;;;4982896;28;20046;-52
2021/11/23 02:34:20;;;;;;;3.42;0.80;;;;;;;;;;4979682;28;20038;-50
2021/11/23 02:36:46;;;;;;;2.45;0.80;;;;;;;;;;4983514;28;20080;-52
2021/11/23 02:39:12;;;;;;;1.73;0.73;;;;;;;;;;4985307;28;20045;-52
2021/11/23 02:41:39;;;;;;;2.33;0.73;;;;;;;;;;4984782;28;20136;-53
2021/11/23 02:44:06;;;;;;;2.13;0.70;;;;;;;;;;4984091;28;20066;-52
2021/11/23 02:46:33;;;;;;;2.65;0.80;;;;;;;;;;4984027;28;20067;-54
2021/11/23 02:48:59;;;;;;;2.17;0.73;;;;;;;;;;4966679;28;20195;-54
2021/11/23 02:51:27;;;;;;;2.50;0.60;;;;;;;;;;4984475;28;20068;-52
2021/11/23 02:53:53;;;;;;;1.98;0.60;;;;;;;;;;4982331;28;20039;-54
2021/11/23 02:56:19;;;;;;;2.20;0.80;;;;;;;;;;4983434;28;20042;-53
2021/11/23 02:58:47;;;;;;;3.47;1.00;;;;;;;;;;4966821;28;21822;-51
2021/11/23 03:01:15;;;;;;;4.93;0.90;;;;;;;;;;4984159;28;20048;-52
2021/11/23 03:03:41;;;;;;;3.78;1.10;;;;;;;;;;4984328;28;20109;-52
2021/11/23 03:06:12;;;;;;;3.63;1.00;;;;;;;;;;4981722;28;20502;-55
2021/11/23 03:08:38;;;;;;;3.17;1.00;;;;;;;;;;4981314;28;20144;-56
2021/11/23 03:11:04;;;;;;;5.72;0.85;;;;;;;;;;4984049;28;20046;-52
2021/11/23 03:13:30;;;;;;;3.03;0.82;;;;;;;;;;4983131;28;21019;-55
2021/11/23 03:15:56;;;;;;;2.50;0.90;;;;;;;;;;4983779;28;20125;-54
2021/11/23 03:18:22;;;;;;;2.50;0.90;;;;;;;;;;4981045;28;20116;-53
2021/11/23 03:20:50;;;;;;;3.40;1.00;;;;;;;;;;4984079;28;20049;-52
2021/11/23 03:23:17;;;;;;;3.53;1.20;;;;;;;;;;4981787;28;21743;-55
2021/11/23 03:25:43;;;;;;;3.47;1.10;;;;;;;;;;4964112;28;20046;-54
2021/11/23 03:28:08;;;;;;;3.60;1.02;;;;;;;;;;4983009;28;20047;-51
2021/11/23 03:30:35;;;;;;;6.65;1.35;;;;;;;;;;4982259;28;20043;-52
2021/11/23 03:33:02;;;;;;;6.80;1.20;;;;;;;;;;4981911;28;20589;-55
2021/11/23 03:35:29;;;;;;;3.25;0.80;;;;;;;;;;4984088;28;20037;-53
2021/11/23 03:37:56;;;;;;;3.95;1.00;;;;;;;;;;4983541;28;20038;-54
2021/11/23 03:40:23;;;;;;;4.60;1.13;;;;;;;;;;4981873;28;20034;-54
2021/11/23 03:42:49;;;;;;;7.32;1.10;;;;;;;;;;4980728;28;20069;-53
2021/11/23 03:45:15;;;;;;;4.93;1.05;;;;;;;;;;4983855;28;20054;-53
2021/11/23 03:47:41;;;;;;;2.75;0.98;;;;;;;;;;4984513;28;20161;-55
2021/11/23 03:50:09;;;;;;;3.50;1.10;;;;;;;;;;4985766;28;20157;-55
2021/11/23 03:52:35;;;;;;;3.70;0.98;;;;;;;;;;4982880;28;20060;-55
2021/11/23 03:55:01;;;;;;;5.53;1.17;;;;;;;;;;4983515;28;20045;-50
2021/11/23 03:57:28;;;;;;;4.75;1.65;;;;;;;;;;4965086;28;20074;-52
2021/11/23 03:59:54;;;;;;;4.40;1.33;;;;;;;;;;4984301;28;20045;-55
2021/11/23 04:02:21;;;;;;;4.38;1.05;;;;;;;;;;4982530;28;20538;-51
2021/11/23 04:04:47;;;;;;;6.60;1.42;;;;;;;;;;4984784;28;20517;-56
2021/11/23 04:07:13;;;;;;;5.78;1.48;;;;;;;;;;4985870;28;20054;-53
2021/11/23 04:09:39;;;;;;;5.13;1.20;;;;;;;;;;4982033;28;20047;-55
2021/11/23 04:12:05;;;;;;;4.00;1.30;;;;;;;;;;4966221;28;20568;-53
2021/11/23 04:14:31;;;;;;;4.18;1.30;;;;;;;;;;4979426;28;20117;-51
2021/11/23 04:16:58;;;;;;;6.93;1.60;;;;;;;;;;4983691;28;20046;-53
2021/11/23 04:19:24;;;;;;;6.25;1.80;;;;;;;;;;4984400;28;20109;-55
2021/11/23 04:21:49;;;;;;;6.95;1.30;;;;;;;;;;4985760;28;20551;-52
2021/11/23 04:24:15;;;;;;;4.90;1.30;;;;;;;;;;4985599;28;20578;-51
2021/11/23 04:26:41;;;;;;;6.03;1.55;;;;;;;;;;4982358;28;20050;-51
2021/11/23 04:29:07;;;;;;;5.30;1.38;;;;;;;;;;4984046;28;20044;-51
2021/11/23 04:31:33;;;;;;;6.95;1.30;;;;;;;;;;4982834;28;20043;-51
2021/11/23 04:33:59;;;;;;;4.10;1.17;;;;;;;;;;4981039;28;20108;-54
2021/11/23 04:36:25;;;;;;;6.18;0.90;;;;;;;;;;4982976;28;20487;-51
2021/11/23 04:38:51;;;;;;;2.70;0.80;;;;;;;;;;4982669;28;20120;-53
2021/11/23 04:41:17;;;;;;;2.80;0.98;;;;;;;;;;4979002;28;20500;-50
2021/11/23 04:43:43;;;;;;;6.70;1.00;;;;;;;;;;4981653;28;20041;-54
2021/11/23 04:46:09;;;;;;;5.00;0.90;;;;;;;;;;4984095;28;20163;-54
2021/11/23 04:48:35;;;;;;;2.60;0.77;;;;;;;;;;4982467;28;20212;-51
2021/11/23 04:51:01;;;;;;;9.85;1.27;;;;;;;;;;4965617;28;20061;-54
2021/11/23 04:53:27;;;;;;;2.80;0.90;;;;;;;;;;4981961;28;20034;-54
2021/11/23 04:55:53;;;;;;;3.53;0.93;;;;;;;;;;4982118;28;20050;-54
2021/11/23 04:58:19;;;;;;;6.20;1.20;;;;;;;;;;4965358;28;20129;-52
2021/11/23 05:00:44;;;;;;;3.50;1.15;;;;;;;;;;4982149;28;20037;-53
2021/11/23 05:03:10;;;;;;;2.55;0.95;;;;;;;;;;4963482;28;20080;-52
2021/11/23 05:05:36;;;;;;;3.90;1.15;;;;;;;;;;4982481;28;20074;-55
2021/11/23 05:08:02;;;;;;;5.15;1.17;;;;;;;;;;4981487;28;20041;-52
2021/11/23 05:10:28;;;;;;;3.58;1.10;;;;;;;;;;4981484;28;20042;-54
2021/11/23 05:12:54;;;;;;;6.00;1.35;;;;;;;;;;4983049;28;20769;-53
2021/11/23 05:15:20;;;;;;;4.68;1.50;;;;;;;;;;4981130;28;20080;-56
2021/11/23 05:17:46;;;;;;;3.28;1.30;;;;;;;;;;4982407;28;20042;-54
2021/11/23 05:20:12;;;;;;;4.72;1.30;;;;;;;;;;4981395;28;20053;-50
2021/11/23 05:22:38;;;;;;;4.10;1.40;;;;;;;;;;4981025;28;20038;-54
2021/11/23 05:25:04;;;;;;;3.75;1.38;;;;;;;;;;4982322;28;20033;-54
2021/11/23 05:27:30;;;;;;;7.72;1.40;;;;;;;;;;4981199;28;20121;-55
2021/11/23 05:29:57;;;;;;;4.82;1.50;;;;;;;;;;4982821;28;20169;-53
2021/11/23 05:32:22;;;;;;;4.32;1.20;;;;;;;;;;4979410;28;20085;-52
2021/11/23 05:34:48;;;;;;;5.75;1.48;;;;;;;;;;4982982;28;20572;-53
2021/11/23 05:37:14;;;;;;;6.40;1.08;;;;;;;;;;4981796;28;20053;-53
2021/11/23 05:39:40;;;;;;;5.72;1.25;;;;;;;;;;4981649;28;20042;-54
2021/11/23 05:42:06;;;;;;;9.43;1.50;;;;;;;;;;4980712;28;20129;-51
2021/11/23 05:44:32;;;;;;;4.75;1.23;;;;;;;;;;4981177;28;20073;-52
2021/11/23 05:46:58;;;;;;;5.22;1.58;;;;;;;;;;4983878;28;20394;-51
2021/11/23 05:49:27;;;;;;;6.30;1.33;;;;;;;;;;4983497;28;20050;-53
2021/11/23 05:51:55;;;;;;;3.40;1.10;;;;;;;;;;4987346;28;20045;-55
2021/11/23 05:54:21;;;;;;;3.88;1.50;;;;;;;;;;4983201;28;20172;-53
2021/11/23 05:56:47;;;;;;;4.38;1.38;;;;;;;;;;4984773;28;20042;-51
2021/11/23 05:59:13;;;;;;;3.03;1.00;;;;;;;;;;4981990;28;20061;-52
2021/11/23 06:01:39;;;;;;;4.25;1.20;;;;;;;;;;4986485;28;20499;-54
2021/11/23 06:04:05;;;;;;;3.95;1.30;;;;;;;;;;4983866;28;20057;-53
2021/11/23 06:06:31;;;;;;;4.55;1.00;;;;;;;;;;4982748;28;20046;-51
2021/11/23 06:08:57;;;;;;;3.45;0.90;;;;;;;;;;4985483;28;20046;-53
2021/11/23 06:11:23;;;;;;;2.03;0.70;;;;;;;;;;4983739;28;20499;-53
2021/11/23 06:13:49;;;;;;;1.95;0.70;;;;;;;;;;4982917;28;20042;-52
2021/11/23 06:16:18;;;;;;;2.83;0.85;;;;;;;;;;4984565;28;20045;-52
2021/11/23 06:18:43;;;;;;;3.85;0.70;;;;;;;;;;4983424;28;20767;-52
2021/11/23 06:21:09;;;;;;;2.10;0.70;;;;;;;;;;4985236;28;20631;-52
2021/11/23 06:23:36;;;;;;;2.25;0.73;;;;;;;;;;4982757;28;20038;-52
2021/11/23 06:26:02;;;;;;;3.00;0.88;;;;;;;;;;4984610;28;20050;-52
2021/11/23 06:28:28;;;;;;;2.00;0.70;;;;;;;;;;4966574;28;20046;-52
2021/11/23 06:30:54;;;;;;;3.67;0.70;;;;;;;;;;4985012;28;20046;-54
2021/11/23 06:33:20;;;;;;;2.33;0.73;;;;;;;;;;4982059;28;20057;-51
2021/11/23 06:35:47;;;;;;;4.60;0.70;;;;;;;;;;4986418;28;20038;-55
2021/11/23 06:38:13;;;;;;;2.20;0.70;;;;;;;;;;4985886;28;20080;-52
2021/11/23 06:40:39;;;;;;;2.17;0.70;;;;;;;;;;4985180;28;20499;-55
2021/11/23 06:43:06;;;;;;;2.05;0.60;;;;;;;;;;4969980;28;20049;-55
2021/11/23 06:45:32;;;;;;;2.05;0.70;;;;;;;;;;4981183;28;20285;-54
2021/11/23 06:47:58;;;;;;;1.55;0.60;;;;;;;;;;4985534;28;20088;-55
2021/11/23 06:50:24;;;;;;;3.03;0.80;;;;;;;;;;4984526;28;20039;-53
2021/11/23 06:52:50;;;;;;;2.92;0.85;;;;;;;;;;4982269;28;20058;-52
2021/11/23 06:55:16;;;;;;;4.70;0.80;;;;;;;;;;4984255;28;20118;-54
2021/11/23 06:57:42;;;;;;;4.10;0.82;;;;;;;;;;4984445;28;20131;-55
2021/11/23 07:00:09;;;;;;;2.45;0.80;;;;;;;;;;4969318;28;20038;-54
2021/11/23 07:02:35;;;;;;;3.95;0.70;;;;;;;;;;4981176;28;20042;-54
2021/11/23 07:05:01;;;;;;;2.58;0.73;;;;;;;;;;4982596;28;20500;-53
2021/11/23 07:07:27;;;;;;;6.13;0.65;;;;;;;;;;4981146;28;20054;-53
2021/11/23 07:09:53;;;;;;;2.22;0.80;;;;;;;;;;4982999;28;20025;-54
2021/11/23 07:12:19;;;;;;;1.95;0.70;;;;;;;;;;4981705;28;20050;-52
2021/11/23 07:14:45;;;;;;;2.38;0.82;;;;;;;;;;4984956;28;20030;-55
2021/11/23 07:17:11;;;;;;;2.60;0.70;;;;;;;;;;4982664;28;20050;-54
2021/11/23 07:19:37;;;;;;;2.58;0.70;;;;;;;;;;4982119;28;20038;-54
2021/11/23 07:22:03;;;;;;;3.33;0.90;;;;;;;;;;4983655;28;20041;-52
2021/11/23 07:24:29;;;;;;;2.13;0.73;;;;;;;;;;4982139;28;20093;-55
2021/11/23 07:26:55;;;;;;;2.50;0.80;;;;;;;;;;4962993;28;20038;-52
2021/11/23 07:29:21;;;;;;;3.05;0.88;;;;;;;;;;4981866;28;20562;-54
2021/11/23 07:31:46;;;;;;;2.20;0.70;;;;;;;;;;4983628;28;20058;-52
2021/11/23 07:34:12;;;;;;;2.30;0.80;;;;;;;;;;4982941;28;20057;-52
2021/11/23 07:36:38;;;;;;;2.05;0.68;;;;;;;;;;4980885;28;20113;-54
2021/11/23 07:39:05;;;;;;;2.15;0.70;;;;;;;;;;4980780;28;20038;-54
2021/11/23 07:41:31;;;;;;;2.05;0.70;;;;;;;;;;4983259;28;20046;-55
2021/11/23 07:43:57;;;;;;;1.85;0.57;;;;;;;;;;4964198;28;20115;-54
2021/11/23 07:46:25;;;;;;;2.22;0.68;;;;;;;;;;4982959;28;20084;-52
2021/11/23 07:48:52;;;;;;;2.65;0.80;;;;;;;;;;4984095;28;20104;-53
2021/11/23 07:51:18;;;;;;;2.60;0.90;;;;;;;;;;4980847;28;20073;-54
2021/11/23 07:53:43;;;;;;;2.25;0.70;;;;;;;;;;4979323;28;20125;-52
2021/11/23 07:56:10;;;;;;;2.20;0.82;;;;;;;;;;4983630;28;20181;-54
2021/11/23 07:58:36;;;;;;;1.90;0.70;;;;;;;;;;4980720;28;20043;-54
2021/11/23 08:01:03;;;;;;;3.05;0.82;;;;;;;;;;4981612;28;20101;-53
2021/11/23 08:03:29;;;;;;;2.63;0.90;;;;;;;;;;4980326;28;20030;-53
2021/11/23 08:05:55;;;;;;;2.20;0.70;;;;;;;;;;4981698;28;20096;-55
2021/11/23 08:08:21;;;;;;;2.38;0.80;;;;;;;;;;4981120;28;20046;-50
2021/11/23 08:10:48;;;;;;;2.63;0.90;;;;;;;;;;4981741;28;20049;-53
2021/11/23 08:13:14;;;;;;;2.85;0.77;;;;;;;;;;4981122;28;20498;-52
2021/11/23 08:15:40;;;;;;;2.35;0.75;;;;;;;;;;4980786;28;20054;-50
2021/11/23 08:18:07;;;;;;;2.67;0.73;;;;;;;;;;4982069;28;20042;-53
2021/11/23 08:20:33;;;;;;;2.67;0.90;;;;;;;;;;4983415;28;20042;-54
2021/11/23 08:22:59;;;;;;;2.80;0.80;;;;;;;;;;4980484;28;20077;-54
2021/11/23 08:25:25;;;;;;;2.92;0.80;;;;;;;;;;4981476;28;20126;-53
2021/11/23 08:27:51;;;;;;;4.68;0.82;;;;;;;;;;4982632;28;20074;-51
2021/11/23 08:30:17;;;;;;;1.65;0.68;;;;;;;;;;4982221;28;20082;-51
2021/11/23 08:32:43;;;;;;;2.85;0.90;;;;;;;;;;4980358;28;20168;-53
2021/11/23 08:35:09;;;;;;;4.57;1.00;;;;;;;;;;4983771;28;20078;-51
2021/11/23 08:37:35;;;;;;;3.90;1.00;;;;;;;;;;4980990;28;21731;-54
2021/11/23 08:40:01;;;;;;;2.35;0.80;;;;;;;;;;4982379;28;20066;-52
2021/11/23 08:42:27;;;;;;;3.42;0.80;;;;;;;;;;4981546;28;20492;-52
2021/11/23 08:44:54;;;;;;;2.63;0.85;;;;;;;;;;4983346;28;20534;-55
2021/11/23 08:47:21;;;;;;;4.97;0.85;;;;;;;;;;4983764;28;20190;-54
2021/11/23 08:49:47;;;;;;;1.98;0.60;;;;;;;;;;4982022;28;20385;-54
2021/11/23 08:52:14;;;;;;;2.22;0.75;;;;;;;;;;4982067;28;20042;-54
2021/11/23 08:54:40;;;;;;;2.70;0.82;;;;;;;;;;4982066;28;20085;-54
2021/11/23 08:57:08;;;;;;;5.45;1.00;;;;;;;;;;4982788;28;20046;-54
2021/11/23 08:59:39;;;;;;;4.13;0.80;;;;;;;;;;4981778;28;20050;-50
2021/11/23 09:02:05;;;;;;;2.35;0.70;;;;;;;;;;4981784;28;20076;-53
2021/11/23 09:04:33;;;;;;;2.20;0.80;;;;;;;;;;4981320;28;20049;-54
2021/11/23 09:07:00;;;;;;;4.97;0.80;;;;;;;;;;4981126;28;20046;-54
2021/11/23 09:09:27;;;;;;;1.45;0.50;;;;;;;;;;4980775;28;20049;-52
2021/11/23 09:11:54;;;;;;;5.40;0.80;;;;;;;;;;4981680;28;20050;-53
2021/11/23 09:14:20;;;;;;;2.42;0.80;;;;;;;;;;4980559;28;20153;-53
2021/11/23 09:16:46;;;;;;;3.28;0.70;;;;;;;;;;4982387;28;20077;-53
2021/11/23 09:19:12;;;;;;;1.50;0.60;;;;;;;;;;4982643;28;20058;-55
2021/11/23 09:21:38;;;;;;;1.98;0.70;;;;;;;;;;4981359;28;20049;-52
2021/11/23 09:24:04;;;;;;;2.33;0.70;;;;;;;;;;4981553;28;20209;-53
2021/11/23 09:26:30;;;;;;;2.10;0.70;;;;;;;;;;4982120;28;20049;-55
2021/11/23 09:28:57;;;;;;;4.03;0.70;;;;;;;;;;4981538;28;20042;-56
2021/11/23 09:31:23;;;;;;;2.25;0.80;;;;;;;;;;4980151;28;20070;-54
2021/11/23 09:33:49;;;;;;;2.50;0.88;;;;;;;;;;4977930;28;20042;-53
2021/11/23 09:36:15;;;;;;;5.15;0.70;;;;;;;;;;4981155;28;20166;-51
2021/11/23 09:38:41;;;;;;;2.35;0.73;;;;;;;;;;4981842;28;20039;-50
2021/11/23 09:41:08;;;;;;;2.55;0.82;;;;;;;;;;4980886;28;20042;-54
2021/11/23 09:43:34;;;;;;;2.60;0.80;;;;;;;;;;4982095;28;20038;-54
2021/11/23 09:46:00;;;;;;;2.63;0.88;;;;;;;;;;4982691;28;20198;-53
2021/11/23 09:48:26;;;;;;;2.47;0.90;;;;;;;;;;4981264;28;20251;-52
2021/11/23 09:50:52;;;;;;;2.20;0.80;;;;;;;;;;4980705;28;20073;-51
2021/11/23 09:53:19;;;;;;;2.97;0.90;;;;;;;;;;4982183;28;20043;-54
2021/11/23 09:55:46;;;;;;;2.38;0.80;;;;;;;;;;4982021;28;20046;-53
2021/11/23 09:58:12;;;;;;;1.90;0.60;;;;;;;;;;4981755;28;20546;-54
2021/11/23 10:00:39;;;;;;;3.38;0.80;;;;;;;;;;4981560;28;20148;-49
2021/11/23 10:03:12;;;;;;;3.20;0.82;;;;;;;;;;4981955;28;20038;-52
2021/11/23 10:05:39;;;;;;;1.40;0.55;;;;;;;;;;4979887;28;20110;-54
2021/11/23 10:08:15;;;;;;;3.15;0.77;;;;;;;;;;4980566;28;20052;-51
2021/11/23 10:10:45;;;;;;;2.17;0.70;;;;;;;;;;4978896;28;20038;-54
2021/11/23 10:13:11;;;;;;;2.35;0.65;;;;;;;;;;4978832;28;20441;-52
2021/11/23 10:15:41;;;;;;;2.35;0.70;;;;;;;;;;4979623;28;20133;-54
2021/11/23 10:18:15;;;;;;;3.85;1.02;;;;;;;;;;4982116;28;20054;-53
2021/11/23 10:20:50;;;;;;;2.67;0.77;;;;;;;;;;4979823;28;20047;-55
2021/11/23 10:23:16;;;;;;;2.30;0.75;;;;;;;;;;4981302;28;20039;-55
2021/11/23 10:25:42;;;;;;;1.75;0.65;;;;;;;;;;4980892;28;20048;-53
2021/11/23 10:28:08;;;;;;;2.13;0.70;;;;;;;;;;4983964;28;20618;-54
2021/11/23 10:30:37;;;;;;;1.80;0.65;;;;;;;;;;4981687;28;20069;-55
2021/11/23 10:33:05;;;;;;;3.63;0.70;;;;;;;;;;4985800;28;20050;-54
2021/11/23 10:35:30;;;;;;;2.75;0.73;;;;;;;;;;4986478;28;20042;-53
2021/11/23 10:37:56;;;;;;;1.67;0.57;;;;;;;;;;4987210;28;20270;-56
2021/11/23 10:40:25;;;;;;;2.17;0.65;;;;;;;;;;4985508;28;20663;-51
2021/11/23 10:42:52;;;;;;;2.80;0.80;;;;;;;;;;4985007;28;20042;-54
2021/11/23 10:45:18;;;;;;;2.05;0.70;;;;;;;;;;4986411;28;20111;-54
2021/11/23 10:47:46;;;;;;;1.50;0.60;;;;;;;;;;4985745;28;20081;-52
2021/11/23 10:50:14;;;;;;;2.40;0.70;;;;;;;;;;4984226;28;20038;-52
2021/11/23 10:52:41;;;;;;;4.30;0.63;;;;;;;;;;4984537;28;20100;-56
2021/11/23 10:55:07;;;;;;;2.20;0.75;;;;;;;;;;4987057;28;20094;-55
2021/11/23 10:57:41;;;;;;;2.10;0.60;;;;;;;;;;4989283;28;20073;-52
2021/11/23 11:00:08;;;;;;;2.63;0.80;;;;;;;;;;4987705;28;20053;-53
2021/11/23 11:02:35;;;;;;;1.85;0.55;;;;;;;;;;4984370;28;20039;-54
2021/11/23 11:05:01;;;;;;;1.90;0.63;;;;;;;;;;4967081;28;20530;-52
2021/11/23 11:07:29;;;;;;;2.05;0.70;;;;;;;;;;4985853;28;20054;-54
2021/11/23 11:09:56;;;;;;;3.30;0.90;;;;;;;;;;4987356;28;20046;-53
2021/11/23 11:12:22;;;;;;;4.45;0.90;;;;;;;;;;4984618;28;20050;-51
2021/11/23 11:14:49;;;;;;;1.42;0.60;;;;;;;;;;4983733;28;20043;-55
2021/11/23 11:17:16;;;;;;;2.03;0.90;;;;;;;;;;4984168;28;20518;-53
2021/11/23 11:19:48;;;;;;;1.65;0.60;;;;;;;;;;4984826;28;20049;-51
2021/11/23 11:22:24;;;;;;;1.95;0.70;;;;;;;;;;4984274;28;20042;-51
2021/11/23 11:25:11;;;;;;;2.20;0.70;;;;;;;;;;4984625;28;20038;-55
2021/11/23 11:27:39;;;;;;;1.95;0.60;;;;;;;;;;4986022;28;20137;-55
2021/11/23 11:30:26;;;;;;;2.15;0.70;;;;;;;;;;4984368;28;20050;-51
2021/11/23 11:32:58;;;;;;;2.45;0.75;;;;;;;;;;4986275;28;21715;-52
2021/11/23 11:35:26;;;;;;;2.30;0.63;;;;;;;;;;4986503;28;20034;-51
2021/11/23 11:37:59;;;;;;;1.75;0.60;;;;;;;;;;4985626;28;20870;-54
2021/11/23 11:40:26;;;;;;;;;;;;;;;;;;4984114;28;20034;-53
2021/11/23 11:43:03;;;;;;;1.85;0.65;;;;;;;;;;4984152;28;20001;-51
2021/11/23 11:45:42;;;;;;;2.45;0.70;;;;;;;;;;4983340;28;20427;-51
2021/11/23 11:48:27;;;;;;;1.90;0.73;;;;;;;;;;4983713;28;20481;-52
2021/11/23 11:51:11;;;;;;;2.60;0.60;;;;;;;;;;4982232;28;20598;-54
2021/11/23 11:53:39;;;;;;;3.00;0.63;;;;;;;;;;4981435;28;20043;-54
2021/11/23 11:56:05;;;;;;;1.75;0.70;;;;;;;;;;4982374;28;20170;-51
2021/11/23 11:58:47;;;;;;;3.55;0.90;;;;;;;;;;4963347;28;20030;-54
2021/11/23 12:01:19;;;;;;;2.50;0.93;;;;;;;;;;4983321;28;20141;-53
2021/11/23 12:03:59;;;;;;;3.15;0.90;;;;;;;;;;4982870;28;20095;-54
2021/11/23 12:06:46;;;;;;;1.83;0.60;;;;;;;;;;4967671;28;20046;-54
2021/11/23 12:09:28;;;;;;;1.83;0.57;;;;;;;;;;4973930;28;20078;-53
2021/11/23 12:12:01;;;;;;;5.55;0.82;;;;;;;;;;4980115;28;20346;-54
2021/11/23 12:14:31;;;;;;;1.42;0.60;;;;;;;;;;4982397;28;20038;-51
2021/11/23 12:17:17;;;;;;;2.63;0.60;;;;;;;;;;4981525;28;20057;-54
2021/11/23 12:19:51;;;;;;;2.00;0.70;;;;;;;;;;4980173;28;20054;-51
2021/11/23 12:22:22;;;;;;;2.08;0.68;;;;;;;;;;4982398;28;20038;-54
2021/11/23 12:24:51;;;;;;;2.05;0.70;;;;;;;;;;4980957;28;20038;-51
2021/11/23 12:27:17;;;;;;;2.40;0.80;;;;;;;;;;4983219;28;20631;-55
2021/11/23 12:29:44;;;;;;;1.70;0.60;;;;;;;;;;4981196;28;20570;-54
2021/11/23 12:32:11;;;;;;;2.13;0.70;;;;;;;;;;4982058;28;20133;-54
2021/11/23 12:34:47;;;;;;;6.57;0.70;;;;;;;;;;4980999;28;20034;-55
2021/11/23 12:37:13;;;;;;;1.65;0.50;;;;;;;;;;4981296;28;20384;-54
2021/11/23 12:39:39;;;;;;;2.85;0.90;;;;;;;;;;4981118;28;20053;-53
2021/11/23 12:42:06;;;;;;;2.40;0.60;;;;;;;;;;4985060;28;21051;-51
2021/11/23 12:44:34;;;;;;;1.65;0.60;;;;;;;;;;4982680;28;20050;-51
2021/11/23 12:47:08;;;;;;;2.10;0.70;;;;;;;;;;4982197;28;20033;-52
2021/11/23 12:49:34;;;;;;;;;;;;;;;;;;4982021;28;20046;-55
2021/11/23 12:52:02;;;;;;;1.63;0.60;;;;;;;;;;4984169;28;19929;-52
2021/11/23 12:54:33;;;;;;;1.23;0.52;;;;;;;;;;4981405;28;20057;-54
2021/11/23 12:57:08;;;;;;;2.40;0.80;;;;;;;;;;4982962;28;20121;-53
2021/11/23 12:59:47;;;;;;;3.65;0.57;;;;;;;;;;4982036;28;20041;-54
2021/11/23 13:02:25;;;;;;;4.03;0.88;;;;;;;;;;4981458;28;20096;-53
2021/11/23 13:04:51;;;;;;;2.15;0.70;;;;;;;;;;4983326;28;21023;-54
2021/11/23 13:07:17;;;;;;;3.78;0.93;;;;;;;;;;4976009;28;20048;-53
2021/11/23 13:09:53;;;;;;;3.63;0.90;;;;;;;;;;4982589;28;20447;-51
2021/11/23 13:12:20;;;;;;;1.73;0.60;;;;;;;;;;4982491;28;20787;-51
2021/11/23 13:15:06;;;;;;;8.20;3.53;;;;;;;;;;4980366;28;20128;-54
2021/11/23 13:17:35;;;;;;;4.35;1.73;;;;;;;;;;4981091;28;20114;-55
2021/11/23 13:20:01;;;;;;;2.70;0.80;;;;;;;;;;4982680;28;20042;-53
2021/11/23 13:22:35;;;;;;;2.30;0.70;;;;;;;;;;4979976;28;20054;-55
2021/11/23 13:25:01;;;;;;;2.17;0.70;;;;;;;;;;4981436;28;20109;-54
2021/11/23 13:27:30;;;;;;;2.25;0.65;;;;;;;;;;4980134;28;20037;-55
2021/11/23 13:29:56;;;;;;;1.90;0.50;;;;;;;;;;4981497;28;20178;-54
2021/11/23 13:32:21;;;;;;;3.17;1.00;;;;;;;;;;4980526;28;20050;-55
2021/11/23 13:34:48;;;;;;;3.53;0.70;;;;;;;;;;4981979;28;20054;-56
2021/11/23 13:37:14;;;;;;;2.63;0.70;;;;;;;;;;4981063;28;20039;-51
2021/11/23 13:39:40;;;;;;;1.55;0.60;;;;;;;;;;4979675;28;20042;-52
2021/11/23 13:42:06;;;;;;;2.50;0.80;;;;;;;;;;4982184;28;20053;-54
2021/11/23 13:44:32;;;;;;;2.30;0.70;;;;;;;;;;4980797;28;20073;-54
2021/11/23 13:47:02;;;;;;;1.55;0.60;;;;;;;;;;4982317;28;20038;-56
2021/11/23 13:49:28;;;;;;;1.80;0.50;;;;;;;;;;4979551;28;20033;-55
2021/11/23 13:52:14;;;;;;;1.83;0.60;;;;;;;;;;4980599;28;20609;-55
2021/11/23 13:54:41;;;;;;;4.35;0.60;;;;;;;;;;4979632;28;20063;-52
2021/11/23 13:57:12;;;;;;;1.38;0.50;;;;;;;;;;4979672;28;20042;-54
2021/11/23 13:59:37;;;;;;;1.63;0.50;;;;;;;;;;4978742;28;20043;-54
2021/11/23 14:02:06;;;;;;;2.90;0.60;;;;;;;;;;4980884;28;20755;-53
2021/11/23 14:04:33;;;;;;;1.25;0.50;;;;;;;;;;4980352;28;20049;-53
2021/11/23 14:07:02;;;;;;;1.83;0.60;;;;;;;;;;4982103;28;20061;-49
2021/11/23 14:09:28;;;;;;;1.73;0.60;;;;;;;;;;4983558;28;20042;-54
2021/11/23 14:11:59;;;;;;;8.07;0.68;;;;;;;;;;4984142;28;20052;-52
2021/11/23 14:14:24;;;;;;;2.65;0.68;;;;;;;;;;4982528;28;20048;-51
2021/11/23 14:16:55;;;;;;;1.33;0.50;;;;;;;;;;4981979;28;20402;-52
2021/11/23 14:19:22;;;;;;;1.30;0.52;;;;;;;;;;4966026;28;20062;-51
2021/11/23 14:21:57;;;;;;;2.90;0.73;;;;;;;;;;4985989;28;20038;-51
2021/11/23 14:24:39;;;;;;;1.85;0.70;;;;;;;;;;4984534;28;20228;-52
2021/11/23 14:27:06;;;;;;;3.10;0.70;;;;;;;;;;4980646;28;20065;-53
2021/11/23 14:29:32;;;;;;;9.52;0.80;;;;;;;;;;4982854;28;20034;-54
2021/11/23 14:31:59;;;;;;;1.60;0.57;;;;;;;;;;4984188;28;20073;-54
2021/11/23 14:34:26;;;;;;;2.30;0.70;;;;;;;;;;4981024;28;20038;-53
2021/11/23 14:36:57;;;;;;;9.52;0.88;;;;;;;;;;4983592;28;20044;-50
2021/11/23 14:39:24;;;;;;;2.72;0.80;;;;;;;;;;4949051;28;20775;-52
2021/11/23 14:41:50;;;;;;;1.58;0.63;;;;;;;;;;4976915;28;20042;-51
2021/11/23 14:44:17;;;;;;;2.85;0.60;;;;;;;;;;4983401;28;20034;-54